sensor_id;sensor_type;location;lat;lon;timestamp;temperature;humidity
75931;DHT22;64609;47.052;15.462;2024-01-11T00:01:25;1.60;57.80
75931;DHT22;64609;47.052;15.462;2024-01-11T00:03:51;1.60;57.80
75931;DHT22;64609;47.052;15.462;2024-01-11T00:06:16;1.60;57.80
75931;DHT22;64609;47.052;15.462;2024-01-11T00:08:43;1.60;57.90
75931;DHT22;64609;47.052;15.462;2024-01-11T00:11:09;1.70;58.00
75931;DHT22;64609;47.052;15.462;2024-01-11T00:13:34;1.60;57.80
75931;DHT22;64609;47.052;15.462;2024-01-11T00:16:00;1.60;57.80
75931;DHT22;64609;47.052;15.462;2024-01-11T00:18:25;1.60;58.00
75931;DHT22;64609;47.052;15.462;2024-01-11T00:20:51;1.60;58.00
75931;DHT22;64609;47.052;15.462;2024-01-11T00:23:17;1.60;58.00
75931;DHT22;64609;47.052;15.462;2024-01-11T00:25:43;1.60;58.00
75931;DHT22;64609;47.052;15.462;2024-01-11T00:28:08;1.60;57.90
75931;DHT22;64609;47.052;15.462;2024-01-11T00:30:34;1.60;57.80
75931;DHT22;64609;47.052;15.462;2024-01-11T00:32:59;1.50;58.00
75931;DHT22;64609;47.052;15.462;2024-01-11T00:35:25;1.50;58.00
75931;DHT22;64609;47.052;15.462;2024-01-11T00:37:50;1.50;57.90
75931;DHT22;64609;47.052;15.462;2024-01-11T00:40:16;1.50;57.90
75931;DHT22;64609;47.052;15.462;2024-01-11T00:42:42;1.50;57.90
75931;DHT22;64609;47.052;15.462;2024-01-11T00:45:07;1.50;57.90
75931;DHT22;64609;47.052;15.462;2024-01-11T00:47:33;1.50;58.00
75931;DHT22;64609;47.052;15.462;2024-01-11T00:49:59;1.40;58.00
75931;DHT22;64609;47.052;15.462;2024-01-11T00:52:24;1.40;58.10
75931;DHT22;64609;47.052;15.462;2024-01-11T00:54:50;1.40;58.00
75931;DHT22;64609;47.052;15.462;2024-01-11T00:57:15;1.40;58.00
75931;DHT22;64609;47.052;15.462;2024-01-11T00:59:41;1.40;58.20
75931;DHT22;64609;47.052;15.462;2024-01-11T01:02:07;1.40;58.30
75931;DHT22;64609;47.052;15.462;2024-01-11T01:04:32;1.40;58.30
75931;DHT22;64609;47.052;15.462;2024-01-11T01:06:58;1.30;58.10
75931;DHT22;64609;47.052;15.462;2024-01-11T01:09:23;1.30;58.10
75931;DHT22;64609;47.052;15.462;2024-01-11T01:11:49;1.30;58.40
75931;DHT22;64609;47.052;15.462;2024-01-11T01:14:15;1.20;58.30
75931;DHT22;64609;47.052;15.462;2024-01-11T01:16:40;1.20;58.40
75931;DHT22;64609;47.052;15.462;2024-01-11T01:19:06;1.20;58.30
75931;DHT22;64609;47.052;15.462;2024-01-11T01:21:32;1.20;58.40
75931;DHT22;64609;47.052;15.462;2024-01-11T01:23:58;1.20;58.30
75931;DHT22;64609;47.052;15.462;2024-01-11T01:26:23;1.10;58.20
75931;DHT22;64609;47.052;15.462;2024-01-11T01:28:49;1.10;58.30
75931;DHT22;64609;47.052;15.462;2024-01-11T01:31:14;1.10;58.30
75931;DHT22;64609;47.052;15.462;2024-01-11T01:33:40;1.10;58.30
75931;DHT22;64609;47.052;15.462;2024-01-11T01:36:09;1.10;58.50
75931;DHT22;64609;47.052;15.462;2024-01-11T01:38:35;1.10;58.70
75931;DHT22;64609;47.052;15.462;2024-01-11T01:41:01;1.10;58.50
75931;DHT22;64609;47.052;15.462;2024-01-11T01:43:26;1.10;58.50
75931;DHT22;64609;47.052;15.462;2024-01-11T01:45:52;1.10;58.50
75931;DHT22;64609;47.052;15.462;2024-01-11T01:48:18;1.00;58.40
75931;DHT22;64609;47.052;15.462;2024-01-11T01:50:44;1.00;58.50
75931;DHT22;64609;47.052;15.462;2024-01-11T01:53:22;1.00;58.60
75931;DHT22;64609;47.052;15.462;2024-01-11T01:55:49;1.00;58.70
75931;DHT22;64609;47.052;15.462;2024-01-11T01:58:17;1.00;58.70
75931;DHT22;64609;47.052;15.462;2024-01-11T02:00:44;1.00;58.90
75931;DHT22;64609;47.052;15.462;2024-01-11T02:03:10;1.00;58.80
75931;DHT22;64609;47.052;15.462;2024-01-11T02:05:37;0.80;58.40
75931;DHT22;64609;47.052;15.462;2024-01-11T02:08:06;0.70;58.50
75931;DHT22;64609;47.052;15.462;2024-01-11T02:10:35;0.60;58.90
75931;DHT22;64609;47.052;15.462;2024-01-11T02:13:04;0.60;59.40
75931;DHT22;64609;47.052;15.462;2024-01-11T02:15:30;0.70;59.20
75931;DHT22;64609;47.052;15.462;2024-01-11T02:17:56;0.60;58.70
75931;DHT22;64609;47.052;15.462;2024-01-11T02:20:21;0.50;58.90
75931;DHT22;64609;47.052;15.462;2024-01-11T02:22:52;0.60;59.20
75931;DHT22;64609;47.052;15.462;2024-01-11T02:25:18;0.60;59.10
75931;DHT22;64609;47.052;15.462;2024-01-11T02:27:50;0.60;59.00
75931;DHT22;64609;47.052;15.462;2024-01-11T02:30:16;0.70;59.20
75931;DHT22;64609;47.052;15.462;2024-01-11T02:32:46;0.80;59.30
75931;DHT22;64609;47.052;15.462;2024-01-11T02:35:17;0.80;59.20
75931;DHT22;64609;47.052;15.462;2024-01-11T02:37:44;0.80;59.00
75931;DHT22;64609;47.052;15.462;2024-01-11T02:40:10;0.80;58.90
75931;DHT22;64609;47.052;15.462;2024-01-11T02:42:37;0.80;58.90
75931;DHT22;64609;47.052;15.462;2024-01-11T02:45:03;0.80;58.90
75931;DHT22;64609;47.052;15.462;2024-01-11T02:47:29;0.80;58.90
75931;DHT22;64609;47.052;15.462;2024-01-11T02:49:54;0.80;58.90
75931;DHT22;64609;47.052;15.462;2024-01-11T02:52:20;0.80;58.80
75931;DHT22;64609;47.052;15.462;2024-01-11T02:54:46;0.70;58.80
75931;DHT22;64609;47.052;15.462;2024-01-11T02:57:11;0.70;58.90
75931;DHT22;64609;47.052;15.462;2024-01-11T02:59:37;0.70;58.90
75931;DHT22;64609;47.052;15.462;2024-01-11T03:02:03;0.60;58.90
75931;DHT22;64609;47.052;15.462;2024-01-11T03:04:29;0.70;59.00
75931;DHT22;64609;47.052;15.462;2024-01-11T03:06:55;0.70;59.10
75931;DHT22;64609;47.052;15.462;2024-01-11T03:09:20;0.60;59.90
75931;DHT22;64609;47.052;15.462;2024-01-11T03:11:46;0.60;59.00
75931;DHT22;64609;47.052;15.462;2024-01-11T03:14:12;0.60;59.00
75931;DHT22;64609;47.052;15.462;2024-01-11T03:16:38;0.60;59.00
75931;DHT22;64609;47.052;15.462;2024-01-11T03:19:05;0.60;58.90
75931;DHT22;64609;47.052;15.462;2024-01-11T03:21:31;0.60;59.00
75931;DHT22;64609;47.052;15.462;2024-01-11T03:23:56;0.60;59.00
75931;DHT22;64609;47.052;15.462;2024-01-11T03:26:22;0.60;59.10
75931;DHT22;64609;47.052;15.462;2024-01-11T03:28:48;0.50;59.00
75931;DHT22;64609;47.052;15.462;2024-01-11T03:31:13;0.50;59.10
75931;DHT22;64609;47.052;15.462;2024-01-11T03:33:39;0.50;59.20
75931;DHT22;64609;47.052;15.462;2024-01-11T03:36:11;0.50;59.20
75931;DHT22;64609;47.052;15.462;2024-01-11T03:38:38;0.50;59.20
75931;DHT22;64609;47.052;15.462;2024-01-11T03:41:09;0.50;59.40
75931;DHT22;64609;47.052;15.462;2024-01-11T03:43:36;0.50;59.40
75931;DHT22;64609;47.052;15.462;2024-01-11T03:46:02;0.50;59.30
75931;DHT22;64609;47.052;15.462;2024-01-11T03:48:28;0.50;59.40
75931;DHT22;64609;47.052;15.462;2024-01-11T03:50:54;0.40;59.30
75931;DHT22;64609;47.052;15.462;2024-01-11T03:53:19;0.40;59.30
75931;DHT22;64609;47.052;15.462;2024-01-11T03:55:45;0.40;59.30
75931;DHT22;64609;47.052;15.462;2024-01-11T03:58:11;0.40;59.30
75931;DHT22;64609;47.052;15.462;2024-01-11T04:00:36;0.40;59.20
75931;DHT22;64609;47.052;15.462;2024-01-11T04:03:02;0.40;59.10
75931;DHT22;64609;47.052;15.462;2024-01-11T04:05:28;0.40;58.90
75931;DHT22;64609;47.052;15.462;2024-01-11T04:07:54;0.30;59.10
75931;DHT22;64609;47.052;15.462;2024-01-11T04:10:19;0.30;59.40
75931;DHT22;64609;47.052;15.462;2024-01-11T04:12:45;0.30;59.40
75931;DHT22;64609;47.052;15.462;2024-01-11T04:15:14;0.30;59.10
75931;DHT22;64609;47.052;15.462;2024-01-11T04:17:40;0.30;59.10
75931;DHT22;64609;47.052;15.462;2024-01-11T04:20:07;0.30;59.40
75931;DHT22;64609;47.052;15.462;2024-01-11T04:22:34;0.30;59.40
75931;DHT22;64609;47.052;15.462;2024-01-11T04:25:00;0.30;59.20
75931;DHT22;64609;47.052;15.462;2024-01-11T04:27:25;0.30;59.20
75931;DHT22;64609;47.052;15.462;2024-01-11T04:29:51;0.20;59.20
75931;DHT22;64609;47.052;15.462;2024-01-11T04:32:17;0.20;59.00
75931;DHT22;64609;47.052;15.462;2024-01-11T04:34:42;0.10;59.10
75931;DHT22;64609;47.052;15.462;2024-01-11T04:37:08;0.20;59.30
75931;DHT22;64609;47.052;15.462;2024-01-11T04:39:34;0.20;59.20
75931;DHT22;64609;47.052;15.462;2024-01-11T04:41:59;0.20;59.20
75931;DHT22;64609;47.052;15.462;2024-01-11T04:44:26;0.20;59.20
75931;DHT22;64609;47.052;15.462;2024-01-11T04:46:52;0.20;59.20
75931;DHT22;64609;47.052;15.462;2024-01-11T04:49:17;0.20;59.00
75931;DHT22;64609;47.052;15.462;2024-01-11T04:51:43;0.20;59.10
75931;DHT22;64609;47.052;15.462;2024-01-11T04:54:08;0.20;59.20
75931;DHT22;64609;47.052;15.462;2024-01-11T04:56:34;0.20;59.10
75931;DHT22;64609;47.052;15.462;2024-01-11T04:59:00;0.20;59.00
75931;DHT22;64609;47.052;15.462;2024-01-11T05:01:25;0.20;58.90
75931;DHT22;64609;47.052;15.462;2024-01-11T05:03:51;0.10;58.70
75931;DHT22;64609;47.052;15.462;2024-01-11T05:06:18;0.20;59.00
75931;DHT22;64609;47.052;15.462;2024-01-11T05:08:47;0.20;59.90
75931;DHT22;64609;47.052;15.462;2024-01-11T05:11:20;0.20;58.90
75931;DHT22;64609;47.052;15.462;2024-01-11T05:13:47;0.20;58.70
75931;DHT22;64609;47.052;15.462;2024-01-11T05:16:23;0.10;58.70
75931;DHT22;64609;47.052;15.462;2024-01-11T05:18:57;0.10;58.70
75931;DHT22;64609;47.052;15.462;2024-01-11T05:21:23;0.10;58.80
75931;DHT22;64609;47.052;15.462;2024-01-11T05:23:49;0.10;59.00
75931;DHT22;64609;47.052;15.462;2024-01-11T05:26:17;0.00;59.10
75931;DHT22;64609;47.052;15.462;2024-01-11T05:28:42;0.00;59.20
75931;DHT22;64609;47.052;15.462;2024-01-11T05:31:13;0.10;59.20
75931;DHT22;64609;47.052;15.462;2024-01-11T05:33:39;0.00;59.20
75931;DHT22;64609;47.052;15.462;2024-01-11T05:36:05;0.00;59.20
75931;DHT22;64609;47.052;15.462;2024-01-11T05:38:31;0.10;59.30
75931;DHT22;64609;47.052;15.462;2024-01-11T05:40:57;0.10;59.20
75931;DHT22;64609;47.052;15.462;2024-01-11T05:43:23;0.10;59.20
75931;DHT22;64609;47.052;15.462;2024-01-11T05:45:49;0.10;59.20
75931;DHT22;64609;47.052;15.462;2024-01-11T05:48:15;0.00;59.00
75931;DHT22;64609;47.052;15.462;2024-01-11T05:50:42;0.00;59.00
75931;DHT22;64609;47.052;15.462;2024-01-11T05:53:07;0.00;59.00
75931;DHT22;64609;47.052;15.462;2024-01-11T05:55:33;0.00;59.00
75931;DHT22;64609;47.052;15.462;2024-01-11T05:58:00;0.00;58.80
75931;DHT22;64609;47.052;15.462;2024-01-11T06:00:25;0.00;58.90
75931;DHT22;64609;47.052;15.462;2024-01-11T06:02:51;0.00;59.00
75931;DHT22;64609;47.052;15.462;2024-01-11T06:05:16;0.00;59.00
75931;DHT22;64609;47.052;15.462;2024-01-11T06:07:42;0.00;59.00
75931;DHT22;64609;47.052;15.462;2024-01-11T06:10:08;0.00;59.00
75931;DHT22;64609;47.052;15.462;2024-01-11T06:12:34;-0.10;58.90
75931;DHT22;64609;47.052;15.462;2024-01-11T06:15:00;-0.10;59.10
75931;DHT22;64609;47.052;15.462;2024-01-11T06:17:26;-0.10;59.20
75931;DHT22;64609;47.052;15.462;2024-01-11T06:19:51;-0.10;59.20
75931;DHT22;64609;47.052;15.462;2024-01-11T06:22:17;-0.10;59.20
75931;DHT22;64609;47.052;15.462;2024-01-11T06:24:43;-0.10;59.10
75931;DHT22;64609;47.052;15.462;2024-01-11T06:27:09;-0.10;59.10
75931;DHT22;64609;47.052;15.462;2024-01-11T06:29:35;-0.10;59.20
75931;DHT22;64609;47.052;15.462;2024-01-11T06:32:01;-0.10;59.30
75931;DHT22;64609;47.052;15.462;2024-01-11T06:34:26;-0.10;59.30
75931;DHT22;64609;47.052;15.462;2024-01-11T06:36:54;-0.10;59.20
75931;DHT22;64609;47.052;15.462;2024-01-11T06:39:20;-0.20;58.90
75931;DHT22;64609;47.052;15.462;2024-01-11T06:41:46;-0.20;59.20
75931;DHT22;64609;47.052;15.462;2024-01-11T06:44:12;-0.20;59.30
75931;DHT22;64609;47.052;15.462;2024-01-11T06:46:37;-0.10;59.40
75931;DHT22;64609;47.052;15.462;2024-01-11T06:49:07;-0.10;59.30
75931;DHT22;64609;47.052;15.462;2024-01-11T06:51:32;-0.10;59.10
75931;DHT22;64609;47.052;15.462;2024-01-11T06:53:59;-0.10;59.00
75931;DHT22;64609;47.052;15.462;2024-01-11T06:56:25;-0.10;59.00
75931;DHT22;64609;47.052;15.462;2024-01-11T06:58:51;-0.10;58.90
75931;DHT22;64609;47.052;15.462;2024-01-11T07:01:17;-0.10;59.00
75931;DHT22;64609;47.052;15.462;2024-01-11T07:03:42;0.00;59.10
75931;DHT22;64609;47.052;15.462;2024-01-11T07:06:08;0.00;58.90
75931;DHT22;64609;47.052;15.462;2024-01-11T07:08:35;0.10;58.80
75931;DHT22;64609;47.052;15.462;2024-01-11T07:11:03;0.00;58.60
75931;DHT22;64609;47.052;15.462;2024-01-11T07:13:30;0.00;58.60
75931;DHT22;64609;47.052;15.462;2024-01-11T07:15:56;0.00;58.70
75931;DHT22;64609;47.052;15.462;2024-01-11T07:18:23;0.00;58.70
75931;DHT22;64609;47.052;15.462;2024-01-11T07:20:50;0.10;58.80
75931;DHT22;64609;47.052;15.462;2024-01-11T07:23:16;0.10;58.80
75931;DHT22;64609;47.052;15.462;2024-01-11T07:25:41;0.20;58.90
75931;DHT22;64609;47.052;15.462;2024-01-11T07:28:07;0.20;58.70
75931;DHT22;64609;47.052;15.462;2024-01-11T07:30:33;0.20;59.10
75931;DHT22;64609;47.052;15.462;2024-01-11T07:32:58;0.20;59.40
75931;DHT22;64609;47.052;15.462;2024-01-11T07:35:24;0.30;59.20
75931;DHT22;64609;47.052;15.462;2024-01-11T07:37:50;0.40;59.20
75931;DHT22;64609;47.052;15.462;2024-01-11T07:40:16;0.40;59.20
75931;DHT22;64609;47.052;15.462;2024-01-11T07:42:43;0.50;59.40
75931;DHT22;64609;47.052;15.462;2024-01-11T07:45:09;0.50;59.30
75931;DHT22;64609;47.052;15.462;2024-01-11T07:47:38;0.60;59.20
75931;DHT22;64609;47.052;15.462;2024-01-11T07:50:08;0.60;59.30
75931;DHT22;64609;47.052;15.462;2024-01-11T07:52:35;0.60;59.30
75931;DHT22;64609;47.052;15.462;2024-01-11T07:55:02;0.70;59.80
75931;DHT22;64609;47.052;15.462;2024-01-11T07:57:33;0.90;59.70
75931;DHT22;64609;47.052;15.462;2024-01-11T07:59:59;1.20;59.80
75931;DHT22;64609;47.052;15.462;2024-01-11T08:02:25;1.90;60.20
75931;DHT22;64609;47.052;15.462;2024-01-11T08:04:51;3.40;57.30
75931;DHT22;64609;47.052;15.462;2024-01-11T08:07:16;5.10;53.20
75931;DHT22;64609;47.052;15.462;2024-01-11T08:09:42;7.00;48.40
75931;DHT22;64609;47.052;15.462;2024-01-11T08:12:11;8.80;45.20
75931;DHT22;64609;47.052;15.462;2024-01-11T08:14:37;10.60;42.50
75931;DHT22;64609;47.052;15.462;2024-01-11T08:17:03;12.00;39.40
75931;DHT22;64609;47.052;15.462;2024-01-11T08:19:30;13.20;37.00
75931;DHT22;64609;47.052;15.462;2024-01-11T08:21:56;14.00;34.80
75931;DHT22;64609;47.052;15.462;2024-01-11T08:24:22;14.20;33.70
75931;DHT22;64609;47.052;15.462;2024-01-11T08:26:48;13.70;34.30
75931;DHT22;64609;47.052;15.462;2024-01-11T08:29:14;13.80;34.60
75931;DHT22;64609;47.052;15.462;2024-01-11T08:31:39;14.70;32.90
75931;DHT22;64609;47.052;15.462;2024-01-11T08:34:05;15.50;32.10
75931;DHT22;64609;47.052;15.462;2024-01-11T08:36:32;15.60;31.40
75931;DHT22;64609;47.052;15.462;2024-01-11T08:39:01;15.20;32.10
75931;DHT22;64609;47.052;15.462;2024-01-11T08:41:28;15.40;31.40
75931;DHT22;64609;47.052;15.462;2024-01-11T08:43:53;15.30;31.00
75931;DHT22;64609;47.052;15.462;2024-01-11T08:46:26;15.20;31.70
75931;DHT22;64609;47.052;15.462;2024-01-11T08:48:52;15.10;31.70
75931;DHT22;64609;47.052;15.462;2024-01-11T08:51:18;14.30;31.60
75931;DHT22;64609;47.052;15.462;2024-01-11T08:53:44;13.30;33.30
75931;DHT22;64609;47.052;15.462;2024-01-11T08:56:10;13.40;33.90
75931;DHT22;64609;47.052;15.462;2024-01-11T08:58:35;14.30;33.10
75931;DHT22;64609;47.052;15.462;2024-01-11T09:01:02;15.00;32.00
75931;DHT22;64609;47.052;15.462;2024-01-11T09:03:28;15.60;30.90
75931;DHT22;64609;47.052;15.462;2024-01-11T09:05:54;16.10;30.50
75931;DHT22;64609;47.052;15.462;2024-01-11T09:08:22;17.00;29.80
75931;DHT22;64609;47.052;15.462;2024-01-11T09:10:48;17.40;29.20
75931;DHT22;64609;47.052;15.462;2024-01-11T09:13:14;17.00;28.70
75931;DHT22;64609;47.052;15.462;2024-01-11T09:15:43;17.20;29.20
75931;DHT22;64609;47.052;15.462;2024-01-11T09:18:09;17.60;28.40
75931;DHT22;64609;47.052;15.462;2024-01-11T09:20:35;18.00;28.40
75931;DHT22;64609;47.052;15.462;2024-01-11T09:23:00;18.60;28.00
75931;DHT22;64609;47.052;15.462;2024-01-11T09:25:30;18.90;27.40
75931;DHT22;64609;47.052;15.462;2024-01-11T09:27:55;19.20;27.00
75931;DHT22;64609;47.052;15.462;2024-01-11T09:30:21;19.10;27.00
75931;DHT22;64609;47.052;15.462;2024-01-11T09:32:47;19.20;26.70
75931;DHT22;64609;47.052;15.462;2024-01-11T09:35:13;19.40;26.50
75931;DHT22;64609;47.052;15.462;2024-01-11T09:37:39;19.30;26.60
75931;DHT22;64609;47.052;15.462;2024-01-11T09:40:05;19.30;26.60
75931;DHT22;64609;47.052;15.462;2024-01-11T09:42:39;19.50;26.40
75931;DHT22;64609;47.052;15.462;2024-01-11T09:45:12;19.90;26.10
75931;DHT22;64609;47.052;15.462;2024-01-11T09:47:39;20.00;25.40
75931;DHT22;64609;47.052;15.462;2024-01-11T09:50:05;20.20;25.70
75931;DHT22;64609;47.052;15.462;2024-01-11T09:52:31;20.60;25.40
75931;DHT22;64609;47.052;15.462;2024-01-11T09:55:01;20.70;24.90
75931;DHT22;64609;47.052;15.462;2024-01-11T09:57:31;20.60;25.10
75931;DHT22;64609;47.052;15.462;2024-01-11T09:59:58;20.80;24.90
75931;DHT22;64609;47.052;15.462;2024-01-11T10:02:27;20.90;24.80
75931;DHT22;64609;47.052;15.462;2024-01-11T10:04:53;20.80;24.70
75931;DHT22;64609;47.052;15.462;2024-01-11T10:07:22;20.70;24.70
75931;DHT22;64609;47.052;15.462;2024-01-11T10:09:48;20.80;24.90
75931;DHT22;64609;47.052;15.462;2024-01-11T10:12:15;21.00;24.70
75931;DHT22;64609;47.052;15.462;2024-01-11T10:14:41;21.00;24.40
75931;DHT22;64609;47.052;15.462;2024-01-11T10:17:07;21.00;24.50
75931;DHT22;64609;47.052;15.462;2024-01-11T10:19:32;21.20;24.10
75931;DHT22;64609;47.052;15.462;2024-01-11T10:21:58;21.30;24.20
75931;DHT22;64609;47.052;15.462;2024-01-11T10:24:24;21.30;24.10
75931;DHT22;64609;47.052;15.462;2024-01-11T10:26:57;21.00;24.20
75931;DHT22;64609;47.052;15.462;2024-01-11T10:29:29;20.80;24.30
75931;DHT22;64609;47.052;15.462;2024-01-11T10:31:55;20.20;24.60
75931;DHT22;64609;47.052;15.462;2024-01-11T10:34:23;19.30;25.60
75931;DHT22;64609;47.052;15.462;2024-01-11T10:36:49;18.20;26.70
75931;DHT22;64609;47.052;15.462;2024-01-11T10:39:16;17.10;27.80
75931;DHT22;64609;47.052;15.462;2024-01-11T10:41:50;16.10;29.00
75931;DHT22;64609;47.052;15.462;2024-01-11T10:44:21;15.40;29.80
75931;DHT22;64609;47.052;15.462;2024-01-11T10:46:47;15.00;30.60
75931;DHT22;64609;47.052;15.462;2024-01-11T10:49:17;14.60;30.80
75931;DHT22;64609;47.052;15.462;2024-01-11T10:51:52;14.00;31.90
75931;DHT22;64609;47.052;15.462;2024-01-11T10:54:19;13.60;32.60
75931;DHT22;64609;47.052;15.462;2024-01-11T10:56:45;13.50;33.20
75931;DHT22;64609;47.052;15.462;2024-01-11T10:59:12;13.30;33.40
75931;DHT22;64609;47.052;15.462;2024-01-11T11:01:39;13.30;33.80
75931;DHT22;64609;47.052;15.462;2024-01-11T11:04:06;13.40;33.50
75931;DHT22;64609;47.052;15.462;2024-01-11T11:06:34;13.40;34.50
75931;DHT22;64609;47.052;15.462;2024-01-11T11:09:02;13.30;33.40
75931;DHT22;64609;47.052;15.462;2024-01-11T11:11:30;13.00;33.10
75931;DHT22;64609;47.052;15.462;2024-01-11T11:13:59;12.80;33.80
75931;DHT22;64609;47.052;15.462;2024-01-11T11:16:26;12.80;34.30
75931;DHT22;64609;47.052;15.462;2024-01-11T11:18:55;12.80;34.10
75931;DHT22;64609;47.052;15.462;2024-01-11T11:21:21;12.60;34.30
75931;DHT22;64609;47.052;15.462;2024-01-11T11:23:47;12.60;34.60
75931;DHT22;64609;47.052;15.462;2024-01-11T11:26:15;12.50;34.70
75931;DHT22;64609;47.052;15.462;2024-01-11T11:28:42;12.20;34.80
75931;DHT22;64609;47.052;15.462;2024-01-11T11:31:07;12.10;35.20
75931;DHT22;64609;47.052;15.462;2024-01-11T11:33:34;12.00;35.50
75931;DHT22;64609;47.052;15.462;2024-01-11T11:36:00;11.80;35.40
75931;DHT22;64609;47.052;15.462;2024-01-11T11:38:29;11.80;35.90
75931;DHT22;64609;47.052;15.462;2024-01-11T11:40:57;11.30;35.60
75931;DHT22;64609;47.052;15.462;2024-01-11T11:43:23;11.30;36.30
75931;DHT22;64609;47.052;15.462;2024-01-11T11:45:50;11.30;36.40
75931;DHT22;64609;47.052;15.462;2024-01-11T11:53:40;11.00;37.20
75931;DHT22;64609;47.052;15.462;2024-01-11T11:56:07;11.20;37.10
75931;DHT22;64609;47.052;15.462;2024-01-11T11:58:35;11.30;36.90
75931;DHT22;64609;47.052;15.462;2024-01-11T12:01:01;11.30;37.00
75931;DHT22;64609;47.052;15.462;2024-01-11T12:03:32;11.20;37.10
75931;DHT22;64609;47.052;15.462;2024-01-11T12:05:59;11.10;37.20
75931;DHT22;64609;47.052;15.462;2024-01-11T12:08:26;11.00;37.50
75931;DHT22;64609;47.052;15.462;2024-01-11T12:10:53;11.00;37.80
75931;DHT22;64609;47.052;15.462;2024-01-11T12:13:19;10.90;37.40
75931;DHT22;64609;47.052;15.462;2024-01-11T12:15:46;10.90;38.00
75931;DHT22;64609;47.052;15.462;2024-01-11T12:18:11;11.00;37.90
75931;DHT22;64609;47.052;15.462;2024-01-11T12:20:37;11.00;37.60
75931;DHT22;64609;47.052;15.462;2024-01-11T12:23:03;11.00;37.60
75931;DHT22;64609;47.052;15.462;2024-01-11T12:25:29;10.90;37.30
75931;DHT22;64609;47.052;15.462;2024-01-11T12:27:58;10.80;37.20
75931;DHT22;64609;47.052;15.462;2024-01-11T12:30:27;10.30;37.10
75931;DHT22;64609;47.052;15.462;2024-01-11T12:32:53;10.10;38.10
75931;DHT22;64609;47.052;15.462;2024-01-11T12:35:20;10.10;38.40
75931;DHT22;64609;47.052;15.462;2024-01-11T12:37:59;10.00;38.30
75931;DHT22;64609;47.052;15.462;2024-01-11T12:40:25;9.90;38.30
75931;DHT22;64609;47.052;15.462;2024-01-11T12:42:53;9.70;38.50
75931;DHT22;64609;47.052;15.462;2024-01-11T12:45:19;9.70;39.00
75931;DHT22;64609;47.052;15.462;2024-01-11T12:47:45;9.60;39.30
75931;DHT22;64609;47.052;15.462;2024-01-11T12:50:14;9.60;39.80
75931;DHT22;64609;47.052;15.462;2024-01-11T12:52:40;9.50;39.60
75931;DHT22;64609;47.052;15.462;2024-01-11T12:55:08;9.40;39.90
75931;DHT22;64609;47.052;15.462;2024-01-11T12:57:34;9.30;40.40
75931;DHT22;64609;47.052;15.462;2024-01-11T13:00:29;9.30;40.40
75931;DHT22;64609;47.052;15.462;2024-01-11T13:02:55;9.10;40.60
75931;DHT22;64609;47.052;15.462;2024-01-11T13:05:21;9.10;40.80
75931;DHT22;64609;47.052;15.462;2024-01-11T13:07:47;8.90;40.90
75931;DHT22;64609;47.052;15.462;2024-01-11T13:10:12;8.70;41.20
75931;DHT22;64609;47.052;15.462;2024-01-11T13:12:40;8.80;41.30
75931;DHT22;64609;47.052;15.462;2024-01-11T13:15:06;8.70;41.20
75931;DHT22;64609;47.052;15.462;2024-01-11T13:17:31;8.80;41.20
75931;DHT22;64609;47.052;15.462;2024-01-11T13:19:57;8.80;41.20
75931;DHT22;64609;47.052;15.462;2024-01-11T13:22:24;8.80;41.10
75931;DHT22;64609;47.052;15.462;2024-01-11T13:24:50;8.80;41.20
75931;DHT22;64609;47.052;15.462;2024-01-11T13:27:16;8.80;40.90
75931;DHT22;64609;47.052;15.462;2024-01-11T13:29:41;8.80;41.00
75931;DHT22;64609;47.052;15.462;2024-01-11T13:32:07;8.90;41.10
75931;DHT22;64609;47.052;15.462;2024-01-11T13:34:33;8.80;41.30
75931;DHT22;64609;47.052;15.462;2024-01-11T13:36:58;8.90;41.50
75931;DHT22;64609;47.052;15.462;2024-01-11T13:39:25;8.90;41.60
75931;DHT22;64609;47.052;15.462;2024-01-11T13:41:51;8.90;41.80
75931;DHT22;64609;47.052;15.462;2024-01-11T13:44:16;8.90;41.60
75931;DHT22;64609;47.052;15.462;2024-01-11T13:46:42;8.90;41.50
75931;DHT22;64609;47.052;15.462;2024-01-11T13:49:09;8.90;41.50
75931;DHT22;64609;47.052;15.462;2024-01-11T13:51:34;8.90;41.40
75931;DHT22;64609;47.052;15.462;2024-01-11T13:54:00;8.90;41.20
75931;DHT22;64609;47.052;15.462;2024-01-11T13:56:27;8.70;41.20
75931;DHT22;64609;47.052;15.462;2024-01-11T13:58:52;8.60;41.60
75931;DHT22;64609;47.052;15.462;2024-01-11T14:01:18;8.60;41.80
75931;DHT22;64609;47.052;15.462;2024-01-11T14:03:44;8.60;42.00
75931;DHT22;64609;47.052;15.462;2024-01-11T14:06:09;8.60;42.00
75931;DHT22;64609;47.052;15.462;2024-01-11T14:08:35;8.50;43.10
75931;DHT22;64609;47.052;15.462;2024-01-11T14:11:01;8.50;42.30
75931;DHT22;64609;47.052;15.462;2024-01-11T14:13:26;8.50;42.40
75931;DHT22;64609;47.052;15.462;2024-01-11T14:15:52;8.50;42.70
75931;DHT22;64609;47.052;15.462;2024-01-11T14:18:22;8.50;42.80
75931;DHT22;64609;47.052;15.462;2024-01-11T14:20:47;8.50;43.00
75931;DHT22;64609;47.052;15.462;2024-01-11T14:23:13;8.50;43.10
75931;DHT22;64609;47.052;15.462;2024-01-11T14:25:39;8.40;43.00
75931;DHT22;64609;47.052;15.462;2024-01-11T14:28:05;8.40;43.10
75931;DHT22;64609;47.052;15.462;2024-01-11T14:30:31;8.40;43.30
75931;DHT22;64609;47.052;15.462;2024-01-11T14:32:56;8.40;43.50
75931;DHT22;64609;47.052;15.462;2024-01-11T14:35:22;8.40;43.60
75931;DHT22;64609;47.052;15.462;2024-01-11T14:37:48;8.30;43.60
75931;DHT22;64609;47.052;15.462;2024-01-11T14:40:14;8.30;43.60
75931;DHT22;64609;47.052;15.462;2024-01-11T14:42:40;8.20;44.60
75931;DHT22;64609;47.052;15.462;2024-01-11T14:45:07;8.20;43.60
75931;DHT22;64609;47.052;15.462;2024-01-11T14:47:32;8.20;43.60
75931;DHT22;64609;47.052;15.462;2024-01-11T14:49:59;8.20;43.70
75931;DHT22;64609;47.052;15.462;2024-01-11T14:52:25;8.20;43.50
75931;DHT22;64609;47.052;15.462;2024-01-11T14:54:51;8.10;43.30
75931;DHT22;64609;47.052;15.462;2024-01-11T14:57:17;8.10;43.20
75931;DHT22;64609;47.052;15.462;2024-01-11T14:59:43;8.00;43.30
75931;DHT22;64609;47.052;15.462;2024-01-11T15:02:09;7.90;43.50
75931;DHT22;64609;47.052;15.462;2024-01-11T15:04:35;7.80;43.70
75931;DHT22;64609;47.052;15.462;2024-01-11T15:07:01;7.70;44.00
75931;DHT22;64609;47.052;15.462;2024-01-11T15:09:27;7.70;44.30
75931;DHT22;64609;47.052;15.462;2024-01-11T15:11:52;7.60;44.30
75931;DHT22;64609;47.052;15.462;2024-01-11T15:14:18;7.60;44.50
75931;DHT22;64609;47.052;15.462;2024-01-11T15:16:44;7.50;44.60
75931;DHT22;64609;47.052;15.462;2024-01-11T15:19:11;7.50;44.70
75931;DHT22;64609;47.052;15.462;2024-01-11T15:21:38;7.40;44.80
75931;DHT22;64609;47.052;15.462;2024-01-11T15:24:05;7.30;45.00
75931;DHT22;64609;47.052;15.462;2024-01-11T15:26:30;7.30;45.30